Time;durP1;ratioP1;P1;durP2;ratioP2;P2;SDS_P1;SDS_P2;PMS_P1;PMS_P2;Temp;Humidity;BMP_temperature;BMP_pressure;BME280_temperature;BME280_humidity;BME280_pressure;Samples;Min_cycle;Max_cycle;Signal;HPM_P1;HPM_P2
2022/04/08 00:02:13;;;;;;;0.5;1.2;;;;;;;12.4;63.2;96240;;;;
2022/04/08 00:12:12;;;;;;;0.9;1.6;;;;;;;12.4;63.1;96250;;;;
2022/04/08 00:23:12;;;;;;;0.9;1.6;;;;;;;12.3;64.7;96240;;;;
2022/04/08 00:33:12;;;;;;;0.9;1.6;;;;;;;12.2;64.9;96260;;;;
2022/04/08 00:44:12;;;;;;;0.9;1.5;;;;;;;12.2;65.3;96270;;;;
2022/04/08 00:54:12;;;;;;;0.9;1.5;;;;;;;11.7;72.6;96330;;;;
2022/04/08 01:05:12;;;;;;;0.9;1.5;;;;;;;10.9;75;96370;;;;
2022/04/08 01:16:12;;;;;;;1.4;4.4;;;;;;;10.5;78.3;96410;;;;
2022/04/08 01:26:12;;;;;;;1.4;4.4;;;;;;;10.1;78.5;96440;;;;
2022/04/08 01:37:12;;;;;;;1.4;4.4;;;;;;;9.8;79.3;96430;;;;
2022/04/08 01:48:12;;;;;;;1.6;4;;;;;;;9.6;80.3;96440;;;;
2022/04/08 01:59:12;;;;;;;1.6;4;;;;;;;9.6;76.5;96440;;;;
2022/04/08 02:10:12;;;;;;;1.4;3.4;;;;;;;9.4;73.8;96450;;;;
2022/04/08 02:21:12;;;;;;;1.4;3.4;;;;;;;9.3;74.7;96460;;;;
2022/04/08 02:31:12;;;;;;;1.4;3.4;;;;;;;9.1;76;96470;;;;
2022/04/08 02:42:12;;;;;;;1.3;3;;;;;;;9.1;75.9;96470;;;;
2022/04/08 02:53:12;;;;;;;1.3;3;;;;;;;9.1;72;96490;;;;
2022/04/08 03:04:12;;;;;;;1.3;3;;;;;;;9.2;62.9;96490;;;;
2022/04/08 03:14:12;;;;;;;1.5;3.7;;;;;;;9.2;60.6;96530;;;;
2022/04/08 03:24:12;;;;;;;1.5;3.7;;;;;;;9.2;60;96540;;;;
2022/04/08 03:35:12;;;;;;;1.5;3.7;;;;;;;8.8;62.4;96570;;;;
2022/04/08 03:45:13;;;;;;;1;3;;;;;;;8.5;62;96590;;;;
2022/04/08 03:55:12;;;;;;;1;3;;;;;;;8.5;59;96610;;;;
2022/04/08 04:06:12;;;;;;;1;3;;;;;;;8.1;59.8;96630;;;;
2022/04/08 04:16:12;;;;;;;1.1;6.2;;;;;;;7.9;59.3;96640;;;;
2022/04/08 04:26:12;;;;;;;1.1;6.2;;;;;;;7.7;58.2;96670;;;;
2022/04/08 04:37:12;;;;;;;1.1;6.2;;;;;;;7.6;58.2;96680;;;;
2022/04/08 04:48:12;;;;;;;1.7;6;;;;;;;7.6;57.2;96690;;;;
2022/04/08 04:59:12;;;;;;;1.7;6;;;;;;;7.8;57;96710;;;;
2022/04/08 05:09:12;;;;;;;1.9;5.5;;;;;;;8;56.5;96710;;;;
2022/04/08 05:19:12;;;;;;;1.9;5.5;;;;;;;8.5;55.6;96710;;;;
2022/04/08 05:29:12;;;;;;;1.9;5.5;;;;;;;8.7;54.7;96740;;;;
2022/04/08 05:40:14;;;;;;;1.9;7.8;;;;;;;9;52.7;96750;;;;
2022/04/08 05:50:12;;;;;;;1.9;7.8;;;;;;;9.2;51.6;96760;;;;
2022/04/08 06:01:12;;;;;;;1.9;7.8;;;;;;;9.4;50.2;96780;;;;
2022/04/08 06:11:12;;;;;;;1.5;4.6;;;;;;;9.6;49.7;96790;;;;
2022/04/08 06:22:12;;;;;;;1.5;4.6;;;;;;;9.8;48.4;96790;;;;
2022/04/08 06:33:12;;;;;;;1.5;4.6;;;;;;;9.9;47.2;96810;;;;
2022/04/08 06:44:12;;;;;;;1.9;5.1;;;;;;;10.1;47.8;96810;;;;
2022/04/08 06:55:12;;;;;;;1.9;5.1;;;;;;;10.1;46.5;96830;;;;
2022/04/08 07:05:12;;;;;;;1.9;5.1;;;;;;;10.2;45.6;96850;;;;
2022/04/08 07:15:12;;;;;;;1.4;3.7;;;;;;;10.4;46.7;96860;;;;
2022/04/08 07:25:12;;;;;;;1.4;3.7;;;;;;;10.5;45.5;96880;;;;
2022/04/08 07:35:12;;;;;;;1.4;3.7;;;;;;;11;44.9;96900;;;;
2022/04/08 07:46:12;;;;;;;1.6;5;;;;;;;11.4;45.3;96910;;;;
2022/04/08 07:57:12;;;;;;;1.6;5;;;;;;;11.2;44.5;96920;;;;
2022/04/08 08:07:12;;;;;;;1.6;5;;;;;;;11.4;44.6;96930;;;;
2022/04/08 08:18:12;;;;;;;1.9;5.7;;;;;;;11.3;43;96950;;;;
2022/04/08 08:28:14;;;;;;;1.9;5.7;;;;;;;11.6;43.3;96960;;;;
2022/04/08 08:39:12;;;;;;;1.8;4.1;;;;;;;11.6;42.4;96980;;;;
2022/04/08 08:49:12;;;;;;;1.8;4.1;;;;;;;11.3;43.2;97000;;;;
2022/04/08 09:00:13;;;;;;;1.8;4.1;;;;;;;11.5;43.2;97020;;;;
2022/04/08 09:11:12;;;;;;;1.6;4.2;;;;;;;11.8;42;97020;;;;
2022/04/08 09:22:12;;;;;;;1.6;4.2;;;;;;;11.7;42.8;97010;;;;
2022/04/08 09:33:12;;;;;;;1.6;4.2;;;;;;;11.7;43.4;97040;;;;
2022/04/08 09:44:12;;;;;;;1.5;4;;;;;;;12.3;41.3;97030;;;;
2022/04/08 09:55:12;;;;;;;1.5;4;;;;;;;12.9;42.7;97030;;;;
2022/04/08 10:06:12;;;;;;;1.5;4;;;;;;;13.1;38.5;97020;;;;
2022/04/08 10:17:12;;;;;;;1.4;3.4;;;;;;;12.8;41.1;97020;;;;
2022/04/08 10:27:13;;;;;;;1.4;3.4;;;;;;;12.9;40.4;97010;;;;
2022/04/08 10:38:12;;;;;;;1.5;7.3;;;;;;;13.1;41.1;97040;;;;
2022/04/08 10:49:12;;;;;;;1.5;7.3;;;;;;;13;39.7;97050;;;;
2022/04/08 11:00:12;;;;;;;1.5;7.3;;;;;;;12.7;39.4;97050;;;;
2022/04/08 11:11:12;;;;;;;2.1;9.2;;;;;;;12.7;38;97060;;;;
2022/04/08 11:21:12;;;;;;;2.1;9.2;;;;;;;13;37.2;97070;;;;
2022/04/08 11:31:12;;;;;;;2.1;9.2;;;;;;;13.1;36.6;97070;;;;
2022/04/08 11:42:14;;;;;;;1.4;3.5;;;;;;;13.2;39;97060;;;;
2022/04/08 11:52:12;;;;;;;1.4;3.5;;;;;;;14;37.6;97050;;;;
2022/04/08 12:03:12;;;;;;;1.4;3.5;;;;;;;14;37.2;97040;;;;
2022/04/08 12:14:12;;;;;;;1.3;2.9;;;;;;;14;35.9;97020;;;;
2022/04/08 12:24:12;;;;;;;1.3;2.9;;;;;;;14.2;35.9;97030;;;;
2022/04/08 12:35:12;;;;;;;1.3;2.9;;;;;;;14.3;36.6;97020;;;;
2022/04/08 12:45:12;;;;;;;1.4;4.3;;;;;;;14.7;35;96990;;;;
2022/04/08 12:56:12;;;;;;;1.4;4.3;;;;;;;14.5;34.6;97000;;;;
2022/04/08 13:06:12;;;;;;;1.4;4.3;;;;;;;14.8;34.1;96980;;;;
2022/04/08 13:17:12;;;;;;;1.3;3.7;;;;;;;14.6;34.4;96970;;;;
2022/04/08 13:28:13;;;;;;;1.3;3.7;;;;;;;14.9;34.8;96960;;;;
2022/04/08 13:39:12;;;;;;;1.5;4.4;;;;;;;14.2;33.4;96940;;;;
2022/04/08 13:50:12;;;;;;;1.5;4.4;;;;;;;14.4;34.4;96920;;;;
2022/04/08 14:00:12;;;;;;;1.5;4.4;;;;;;;14.9;36;96910;;;;
2022/04/08 14:11:12;;;;;;;1.8;5.2;;;;;;;15;35.4;96890;;;;
2022/04/08 14:21:12;;;;;;;1.8;5.2;;;;;;;14.6;34.6;96880;;;;
2022/04/08 14:32:12;;;;;;;1.8;5.2;;;;;;;15;36.5;96860;;;;
2022/04/08 14:42:12;;;;;;;1.6;4.4;;;;;;;14.9;36.2;96850;;;;
2022/04/08 14:53:12;;;;;;;1.6;4.4;;;;;;;14.9;36.3;96830;;;;
2022/04/08 15:03:12;;;;;;;1.6;4.4;;;;;;;15;36;96820;;;;
2022/04/08 15:14:12;;;;;;;2.3;7.7;;;;;;;14.8;36.3;96810;;;;
2022/04/08 15:25:12;;;;;;;2.3;7.7;;;;;;;14.5;36.8;96820;;;;
2022/04/08 15:36:12;;;;;;;2.3;7.7;;;;;;;14;38.3;96830;;;;
2022/04/08 15:46:12;;;;;;;2.4;5;;;;;;;13.8;38.4;96830;;;;
2022/04/08 15:56:12;;;;;;;2.4;5;;;;;;;13.5;38.5;96840;;;;
2022/04/08 16:06:12;;;;;;;2.4;5;;;;;;;13;38.4;96860;;;;
2022/04/08 16:17:12;;;;;;;2.5;5.3;;;;;;;12.3;42.3;96890;;;;
2022/04/08 16:27:12;;;;;;;2.5;5.3;;;;;;;11.9;46.8;96930;;;;
2022/04/08 16:37:12;;;;;;;2.5;6;;;;;;;11.1;51.9;96950;;;;
2022/04/08 16:48:12;;;;;;;2.5;6;;;;;;;10.6;56.8;96960;;;;
2022/04/08 16:58:12;;;;;;;2.5;6;;;;;;;9.7;60.4;96960;;;;
2022/04/08 17:09:12;;;;;;;2.4;7;;;;;;;9.3;64.9;96960;;;;
2022/04/08 17:19:12;;;;;;;2.4;7;;;;;;;9;68.5;96960;;;;
2022/04/08 17:29:12;;;;;;;2.4;7;;;;;;;8.7;71.2;96950;;;;
2022/04/08 17:40:12;;;;;;;3.4;6;;;;;;;8.5;72.6;96950;;;;
2022/04/08 17:50:13;;;;;;;3.4;6;;;;;;;8.2;75;96950;;;;
2022/04/08 18:01:12;;;;;;;3.4;6;;;;;;;7.9;76.1;96930;;;;
2022/04/08 18:11:12;;;;;;;4.5;8.4;;;;;;;8;76.1;96920;;;;
2022/04/08 18:22:13;;;;;;;4.5;8.4;;;;;;;8;76.9;96910;;;;
2022/04/08 18:32:12;;;;;;;4.5;8.4;;;;;;;7.9;76;96890;;;;
2022/04/08 18:42:12;;;;;;;5.3;8.7;;;;;;;7.9;76.6;96880;;;;
2022/04/08 18:52:12;;;;;;;5.3;8.7;;;;;;;7.8;77.1;96860;;;;
2022/04/08 19:02:14;;;;;;;5.3;8.7;;;;;;;7.8;78.1;96850;;;;
2022/04/08 19:13:12;;;;;;;7.6;10.1;;;;;;;7.7;79.6;96840;;;;
2022/04/08 19:23:12;;;;;;;7.6;10.1;;;;;;;7.4;81.2;96810;;;;
2022/04/08 19:33:12;;;;;;;7.6;10.1;;;;;;;7.2;81.9;96780;;;;
2022/04/08 19:43:12;;;;;;;8.7;11.6;;;;;;;7.2;82.7;96780;;;;
2022/04/08 19:54:12;;;;;;;8.7;11.6;;;;;;;7;83.9;96750;;;;
2022/04/08 20:05:12;;;;;;;8.7;11.6;;;;;;;7.1;83;96730;;;;
2022/04/08 20:15:12;;;;;;;9.7;13.8;;;;;;;6.9;83.5;96690;;;;
2022/04/08 20:25:12;;;;;;;9.7;13.8;;;;;;;6.9;83.2;96670;;;;
2022/04/08 20:35:12;;;;;;;9.7;13.8;;;;;;;6.9;84;96680;;;;
2022/04/08 20:46:15;;;;;;;16.5;22.5;;;;;;;7.1;83.8;96660;;;;
2022/04/08 20:56:12;;;;;;;16.5;22.5;;;;;;;7;84.1;96630;;;;
2022/04/08 21:07:12;;;;;;;10.4;13.4;;;;;;;7.1;84.1;96640;;;;
2022/04/08 21:17:12;;;;;;;10.4;13.4;;;;;;;7.1;84;96610;;;;
2022/04/08 21:28:12;;;;;;;10.4;13.4;;;;;;;7.1;84.6;96620;;;;
2022/04/08 21:38:14;;;;;;;10.9;17.7;;;;;;;6.9;84.4;96610;;;;
2022/04/08 21:48:13;;;;;;;10.9;17.7;;;;;;;7.1;84.2;96580;;;;
2022/04/08 21:58:12;;;;;;;10.9;17.7;;;;;;;7;84.7;96560;;;;
2022/04/08 22:09:12;;;;;;;9.3;12.4;;;;;;;7.2;84.1;96590;;;;
2022/04/08 22:19:12;;;;;;;9.3;12.4;;;;;;;7.4;83.5;96590;;;;
2022/04/08 22:30:12;;;;;;;9.3;12.4;;;;;;;7.4;83.5;96590;;;;
2022/04/08 22:41:12;;;;;;;9.1;11.3;;;;;;;7.4;83.3;96570;;;;
2022/04/08 22:51:13;;;;;;;9.1;11.3;;;;;;;7.3;83.9;96560;;;;
2022/04/08 23:01:12;;;;;;;9.1;11.3;;;;;;;7.4;84.3;96560;;;;
2022/04/08 23:12:13;;;;;;;10.7;15.7;;;;;;;7.6;83.5;96550;;;;
2022/04/08 23:22:12;;;;;;;10.7;15.7;;;;;;;7.7;82.8;96550;;;;
2022/04/08 23:33:12;;;;;;;10.7;15.7;;;;;;;7.5;83.2;96560;;;;
2022/04/08 23:44:12;;;;;;;9.1;12;;;;;;;7.3;83.5;96540;;;;
2022/04/08 23:55:12;;;;;;;9.1;12;;;;;;;7.4;83.6;96520;;;;
